sensor_id;sensor_type;location;lat;lon;timestamp;pressure;altitude;pressure_sealevel;temperature;humidity
74633;BME280;63139;52.018;8.552;2024-01-16T00:02:06;99493.84;;;2.52;100.00
74633;BME280;63139;52.018;8.552;2024-01-16T00:04:36;99491.34;;;2.50;100.00
74633;BME280;63139;52.018;8.552;2024-01-16T00:07:05;99481.72;;;2.51;100.00
74633;BME280;63139;52.018;8.552;2024-01-16T00:09:34;99481.44;;;2.54;100.00
74633;BME280;63139;52.018;8.552;2024-01-16T00:12:03;99488.69;;;2.60;100.00
74633;BME280;63139;52.018;8.552;2024-01-16T00:14:34;99497.91;;;2.64;100.00
74633;BME280;63139;52.018;8.552;2024-01-16T00:17:04;99490.22;;;2.53;100.00
74633;BME280;63139;52.018;8.552;2024-01-16T00:19:32;99493.66;;;2.53;100.00
74633;BME280;63139;52.018;8.552;2024-01-16T00:22:00;99486.78;;;2.52;100.00
74633;BME280;63139;52.018;8.552;2024-01-16T00:24:32;99506.19;;;2.50;100.00
74633;BME280;63139;52.018;8.552;2024-01-16T00:27:00;99521.31;;;2.46;100.00
74633;BME280;63139;52.018;8.552;2024-01-16T00:29:28;99514.03;;;2.50;100.00
74633;BME280;63139;52.018;8.552;2024-01-16T00:31:57;99523.34;;;2.52;100.00
74633;BME280;63139;52.018;8.552;2024-01-16T00:34:25;99518.81;;;2.54;100.00
74633;BME280;63139;52.018;8.552;2024-01-16T00:36:53;99521.34;;;2.37;100.00
74633;BME280;63139;52.018;8.552;2024-01-16T00:39:21;99518.19;;;2.43;100.00
74633;BME280;63139;52.018;8.552;2024-01-16T00:41:50;99521.47;;;2.35;100.00
74633;BME280;63139;52.018;8.552;2024-01-16T00:44:18;99511.72;;;2.37;100.00
74633;BME280;63139;52.018;8.552;2024-01-16T00:46:47;99522.56;;;2.32;100.00
74633;BME280;63139;52.018;8.552;2024-01-16T00:49:15;99524.22;;;2.33;100.00
74633;BME280;63139;52.018;8.552;2024-01-16T00:51:47;99522.19;;;2.37;100.00
74633;BME280;63139;52.018;8.552;2024-01-16T00:54:15;99528.63;;;2.33;100.00
74633;BME280;63139;52.018;8.552;2024-01-16T00:56:43;99526.00;;;2.23;100.00
74633;BME280;63139;52.018;8.552;2024-01-16T00:59:12;99530.56;;;2.21;100.00
74633;BME280;63139;52.018;8.552;2024-01-16T01:01:40;99525.06;;;2.24;100.00
74633;BME280;63139;52.018;8.552;2024-01-16T01:04:09;99530.41;;;2.23;100.00
74633;BME280;63139;52.018;8.552;2024-01-16T01:06:37;99519.84;;;2.24;100.00
74633;BME280;63139;52.018;8.552;2024-01-16T01:09:05;99536.47;;;2.23;100.00
74633;BME280;63139;52.018;8.552;2024-01-16T01:11:34;99538.41;;;2.21;100.00
74633;BME280;63139;52.018;8.552;2024-01-16T01:14:02;99538.94;;;2.25;100.00
74633;BME280;63139;52.018;8.552;2024-01-16T01:16:32;99530.97;;;2.26;100.00
74633;BME280;63139;52.018;8.552;2024-01-16T01:19:01;99542.94;;;2.19;100.00
74633;BME280;63139;52.018;8.552;2024-01-16T01:21:30;99555.59;;;2.14;100.00
74633;BME280;63139;52.018;8.552;2024-01-16T01:23:57;99554.06;;;2.12;100.00
74633;BME280;63139;52.018;8.552;2024-01-16T01:26:25;99557.09;;;2.07;100.00
74633;BME280;63139;52.018;8.552;2024-01-16T01:28:53;99560.38;;;2.00;100.00
74633;BME280;63139;52.018;8.552;2024-01-16T01:31:23;99566.41;;;1.90;100.00
74633;BME280;63139;52.018;8.552;2024-01-16T01:33:53;99572.56;;;1.80;100.00
74633;BME280;63139;52.018;8.552;2024-01-16T01:36:21;99570.91;;;1.79;100.00
74633;BME280;63139;52.018;8.552;2024-01-16T01:38:49;99581.31;;;1.60;100.00
74633;BME280;63139;52.018;8.552;2024-01-16T01:41:17;99578.38;;;1.43;100.00
74633;BME280;63139;52.018;8.552;2024-01-16T01:43:45;99575.91;;;1.42;100.00
74633;BME280;63139;52.018;8.552;2024-01-16T01:46:16;99594.16;;;1.42;100.00
74633;BME280;63139;52.018;8.552;2024-01-16T01:48:47;99586.06;;;1.45;100.00
74633;BME280;63139;52.018;8.552;2024-01-16T01:51:18;99575.91;;;1.42;100.00
74633;BME280;63139;52.018;8.552;2024-01-16T01:53:48;99590.47;;;1.44;100.00
74633;BME280;63139;52.018;8.552;2024-01-16T01:56:18;99586.25;;;1.53;100.00
74633;BME280;63139;52.018;8.552;2024-01-16T01:58:47;99591.34;;;1.54;100.00
74633;BME280;63139;52.018;8.552;2024-01-16T02:01:18;99602.19;;;1.60;100.00
74633;BME280;63139;52.018;8.552;2024-01-16T02:03:47;99594.66;;;1.66;100.00
74633;BME280;63139;52.018;8.552;2024-01-16T02:06:18;99592.78;;;1.78;100.00
74633;BME280;63139;52.018;8.552;2024-01-16T02:08:47;99600.19;;;1.82;100.00
74633;BME280;63139;52.018;8.552;2024-01-16T02:11:15;99602.81;;;1.92;100.00
74633;BME280;63139;52.018;8.552;2024-01-16T02:13:43;99591.41;;;1.83;100.00
74633;BME280;63139;52.018;8.552;2024-01-16T02:16:19;99600.63;;;1.97;100.00
74633;BME280;63139;52.018;8.552;2024-01-16T02:18:49;99599.38;;;2.01;100.00
74633;BME280;63139;52.018;8.552;2024-01-16T02:21:21;99598.41;;;2.02;100.00
74633;BME280;63139;52.018;8.552;2024-01-16T02:23:51;99599.81;;;2.06;100.00
74633;BME280;63139;52.018;8.552;2024-01-16T02:26:20;99616.16;;;2.08;100.00
74633;BME280;63139;52.018;8.552;2024-01-16T02:28:48;99602.56;;;2.14;100.00
74633;BME280;63139;52.018;8.552;2024-01-16T02:31:16;99606.13;;;2.13;100.00
74633;BME280;63139;52.018;8.552;2024-01-16T02:33:44;99617.41;;;2.14;100.00
74633;BME280;63139;52.018;8.552;2024-01-16T02:36:12;99611.50;;;2.21;100.00
74633;BME280;63139;52.018;8.552;2024-01-16T02:38:40;99621.28;;;2.29;100.00
74633;BME280;63139;52.018;8.552;2024-01-16T02:41:15;99618.91;;;2.26;100.00
74633;BME280;63139;52.018;8.552;2024-01-16T02:43:44;99614.50;;;2.17;100.00
74633;BME280;63139;52.018;8.552;2024-01-16T02:46:12;99614.38;;;2.18;100.00
74633;BME280;63139;52.018;8.552;2024-01-16T02:48:40;99615.63;;;2.24;100.00
74633;BME280;63139;52.018;8.552;2024-01-16T02:51:09;99620.16;;;2.22;100.00
74633;BME280;63139;52.018;8.552;2024-01-16T02:53:37;99618.66;;;2.19;100.00
74633;BME280;63139;52.018;8.552;2024-01-16T02:56:05;99633.75;;;2.25;100.00
74633;BME280;63139;52.018;8.552;2024-01-16T02:58:35;99619.88;;;2.25;100.00
74633;BME280;63139;52.018;8.552;2024-01-16T03:01:03;99624.69;;;2.20;100.00
74633;BME280;63139;52.018;8.552;2024-01-16T03:03:31;99628.66;;;2.24;100.00
74633;BME280;63139;52.018;8.552;2024-01-16T03:05:59;99640.38;;;2.29;100.00
74633;BME280;63139;52.018;8.552;2024-01-16T03:08:27;99635.56;;;2.34;100.00
74633;BME280;63139;52.018;8.552;2024-01-16T03:10:55;99633.91;;;2.33;100.00
74633;BME280;63139;52.018;8.552;2024-01-16T03:13:23;99636.25;;;2.37;100.00
74633;BME280;63139;52.018;8.552;2024-01-16T03:15:53;99640.78;;;2.34;100.00
74633;BME280;63139;52.018;8.552;2024-01-16T03:18:21;99642.56;;;2.34;100.00
74633;BME280;63139;52.018;8.552;2024-01-16T03:20:49;99650.00;;;2.29;100.00
74633;BME280;63139;52.018;8.552;2024-01-16T03:23:17;99647.66;;;2.36;100.00
74633;BME280;63139;52.018;8.552;2024-01-16T03:25:46;99649.97;;;2.39;100.00
74633;BME280;63139;52.018;8.552;2024-01-16T03:28:14;99656.72;;;2.41;100.00
74633;BME280;63139;52.018;8.552;2024-01-16T03:30:42;99660.44;;;2.39;100.00
74633;BME280;63139;52.018;8.552;2024-01-16T03:33:11;99653.72;;;2.36;100.00
74633;BME280;63139;52.018;8.552;2024-01-16T03:35:39;99649.84;;;2.40;100.00
74633;BME280;63139;52.018;8.552;2024-01-16T03:38:07;99651.09;;;2.46;100.00
74633;BME280;63139;52.018;8.552;2024-01-16T03:40:35;99650.13;;;2.47;100.00
74633;BME280;63139;52.018;8.552;2024-01-16T03:43:03;99656.19;;;2.47;100.00
74633;BME280;63139;52.018;8.552;2024-01-16T03:45:33;99656.88;;;2.49;100.00
74633;BME280;63139;52.018;8.552;2024-01-16T03:48:01;99647.25;;;2.50;100.00
74633;BME280;63139;52.018;8.552;2024-01-16T03:50:31;99654.38;;;2.48;100.00
74633;BME280;63139;52.018;8.552;2024-01-16T03:53:00;99657.41;;;2.53;100.00
74633;BME280;63139;52.018;8.552;2024-01-16T03:55:28;99656.47;;;2.44;100.00
74633;BME280;63139;52.018;8.552;2024-01-16T03:57:56;99656.03;;;2.39;100.00
74633;BME280;63139;52.018;8.552;2024-01-16T04:00:24;99658.66;;;2.39;100.00
74633;BME280;63139;52.018;8.552;2024-01-16T04:02:52;99657.53;;;2.22;100.00
74633;BME280;63139;52.018;8.552;2024-01-16T04:05:20;99655.59;;;2.24;100.00
74633;BME280;63139;52.018;8.552;2024-01-16T04:07:49;99649.41;;;2.16;100.00
74633;BME280;63139;52.018;8.552;2024-01-16T04:10:19;99651.19;;;2.15;100.00
74633;BME280;63139;52.018;8.552;2024-01-16T04:12:46;99662.47;;;2.16;100.00
74633;BME280;63139;52.018;8.552;2024-01-16T04:15:14;99646.53;;;2.19;100.00
74633;BME280;63139;52.018;8.552;2024-01-16T04:17:44;99656.69;;;2.12;100.00
74633;BME280;63139;52.018;8.552;2024-01-16T04:20:12;99659.59;;;2.19;100.00
74633;BME280;63139;52.018;8.552;2024-01-16T04:22:40;99665.91;;;2.26;100.00
74633;BME280;63139;52.018;8.552;2024-01-16T04:25:10;99663.56;;;2.23;100.00
74633;BME280;63139;52.018;8.552;2024-01-16T04:27:38;99657.97;;;2.27;100.00
74633;BME280;63139;52.018;8.552;2024-01-16T04:30:07;99651.78;;;2.28;100.00
74633;BME280;63139;52.018;8.552;2024-01-16T04:32:36;99661.81;;;2.33;100.00
74633;BME280;63139;52.018;8.552;2024-01-16T04:35:05;99649.44;;;2.35;100.00
74633;BME280;63139;52.018;8.552;2024-01-16T04:37:33;99662.38;;;2.37;100.00
74633;BME280;63139;52.018;8.552;2024-01-16T04:40:01;99653.28;;;2.31;100.00
74633;BME280;63139;52.018;8.552;2024-01-16T04:42:30;99655.38;;;2.37;100.00
74633;BME280;63139;52.018;8.552;2024-01-16T04:44:58;99658.66;;;2.39;100.00
74633;BME280;63139;52.018;8.552;2024-01-16T04:47:27;99651.63;;;2.40;100.00
74633;BME280;63139;52.018;8.552;2024-01-16T04:49:55;99655.38;;;2.37;100.00
74633;BME280;63139;52.018;8.552;2024-01-16T04:52:23;99659.47;;;2.40;100.00
74633;BME280;63139;52.018;8.552;2024-01-16T04:54:50;99658.38;;;2.42;100.00
74633;BME280;63139;52.018;8.552;2024-01-16T04:57:19;99653.03;;;2.44;100.00
74633;BME280;63139;52.018;8.552;2024-01-16T04:59:49;99655.34;;;2.47;100.00
74633;BME280;63139;52.018;8.552;2024-01-16T05:02:16;99655.91;;;2.41;100.00
74633;BME280;63139;52.018;8.552;2024-01-16T05:04:45;99650.94;;;2.38;100.00
74633;BME280;63139;52.018;8.552;2024-01-16T05:07:16;99650.81;;;2.39;100.00
74633;BME280;63139;52.018;8.552;2024-01-16T05:09:46;99656.59;;;2.43;100.00
74633;BME280;63139;52.018;8.552;2024-01-16T05:12:14;99645.84;;;2.46;100.00
74633;BME280;63139;52.018;8.552;2024-01-16T05:14:42;99648.19;;;2.39;100.00
74633;BME280;63139;52.018;8.552;2024-01-16T05:17:11;99643.09;;;2.38;100.00
74633;BME280;63139;52.018;8.552;2024-01-16T05:19:39;99633.47;;;2.38;100.00
74633;BME280;63139;52.018;8.552;2024-01-16T05:22:07;99633.91;;;2.33;100.00
74633;BME280;63139;52.018;8.552;2024-01-16T05:24:35;99637.09;;;2.37;100.00
74633;BME280;63139;52.018;8.552;2024-01-16T05:27:04;99638.72;;;2.38;100.00
74633;BME280;63139;52.018;8.552;2024-01-16T05:29:34;99642.56;;;2.34;100.00
74633;BME280;63139;52.018;8.552;2024-01-16T05:32:08;99640.34;;;2.39;100.00
74633;BME280;63139;52.018;8.552;2024-01-16T05:34:37;99641.88;;;2.42;100.00
74633;BME280;63139;52.018;8.552;2024-01-16T05:37:05;99648.31;;;2.38;100.00
74633;BME280;63139;52.018;8.552;2024-01-16T05:39:33;99641.06;;;2.41;100.00
74633;BME280;63139;52.018;8.552;2024-01-16T05:42:01;99644.50;;;2.42;100.00
74633;BME280;63139;52.018;8.552;2024-01-16T05:44:29;99645.31;;;2.42;100.00
74633;BME280;63139;52.018;8.552;2024-01-16T05:46:58;99645.47;;;2.41;100.00
74633;BME280;63139;52.018;8.552;2024-01-16T05:49:25;99646.28;;;2.41;100.00
74633;BME280;63139;52.018;8.552;2024-01-16T05:51:56;99650.81;;;2.39;100.00
74633;BME280;63139;52.018;8.552;2024-01-16T05:54:24;99639.16;;;2.43;100.00
74633;BME280;63139;52.018;8.552;2024-01-16T05:56:52;99644.06;;;2.46;100.00
74633;BME280;63139;52.018;8.552;2024-01-16T05:59:20;99640.09;;;2.42;100.00
74633;BME280;63139;52.018;8.552;2024-01-16T06:01:49;99640.22;;;2.41;100.00
74633;BME280;63139;52.018;8.552;2024-01-16T06:04:17;99645.84;;;2.46;100.00
74633;BME280;63139;52.018;8.552;2024-01-16T06:06:45;99647.50;;;2.47;100.00
74633;BME280;63139;52.018;8.552;2024-01-16T06:09:16;99639.53;;;2.48;100.00
74633;BME280;63139;52.018;8.552;2024-01-16T06:11:45;99649.16;;;2.48;100.00
74633;BME280;63139;52.018;8.552;2024-01-16T06:14:14;99642.03;;;2.50;100.00
74633;BME280;63139;52.018;8.552;2024-01-16T06:16:48;99646.28;;;2.51;100.00
74633;BME280;63139;52.018;8.552;2024-01-16T06:19:17;99650.69;;;2.50;100.00
74633;BME280;63139;52.018;8.552;2024-01-16T06:21:45;99643.25;;;2.46;100.00
74633;BME280;63139;52.018;8.552;2024-01-16T06:24:13;99648.22;;;2.49;100.00
74633;BME280;63139;52.018;8.552;2024-01-16T06:26:42;99650.41;;;2.53;100.00
74633;BME280;63139;52.018;8.552;2024-01-16T06:29:10;99653.00;;;2.53;100.00
74633;BME280;63139;52.018;8.552;2024-01-16T06:31:54;99648.09;;;2.50;100.00
74633;BME280;63139;52.018;8.552;2024-01-16T06:34:22;99656.56;;;2.52;100.00
74633;BME280;63139;52.018;8.552;2024-01-16T06:36:51;99659.75;;;2.56;100.00
74633;BME280;63139;52.018;8.552;2024-01-16T06:39:19;99660.44;;;2.58;100.00
74633;BME280;63139;52.018;8.552;2024-01-16T06:41:48;99650.66;;;2.60;100.00
74633;BME280;63139;52.018;8.552;2024-01-16T06:44:16;99648.34;;;2.57;100.00
74633;BME280;63139;52.018;8.552;2024-01-16T06:46:44;99645.75;;;2.57;100.00
74633;BME280;63139;52.018;8.552;2024-01-16T06:49:12;99648.63;;;2.54;100.00
74633;BME280;63139;52.018;8.552;2024-01-16T06:51:40;99645.88;;;2.55;100.00
74633;BME280;63139;52.018;8.552;2024-01-16T06:54:07;99649.44;;;2.54;100.00
74633;BME280;63139;52.018;8.552;2024-01-16T06:56:35;99643.94;;;2.48;100.00
74633;BME280;63139;52.018;8.552;2024-01-16T06:59:05;99651.53;;;2.51;100.00
74633;BME280;63139;52.018;8.552;2024-01-16T07:01:37;99650.56;;;2.52;100.00
74633;BME280;63139;52.018;8.552;2024-01-16T07:04:05;99650.56;;;2.52;100.00
74633;BME280;63139;52.018;8.552;2024-01-16T07:06:33;99653.97;;;2.52;100.00
74633;BME280;63139;52.018;8.552;2024-01-16T07:09:01;99654.13;;;2.51;100.00
74633;BME280;63139;52.018;8.552;2024-01-16T07:11:29;99666.50;;;2.49;100.00
74633;BME280;63139;52.018;8.552;2024-01-16T07:13:58;99661.28;;;2.49;100.00
74633;BME280;63139;52.018;8.552;2024-01-16T07:16:27;99666.50;;;2.49;100.00
74633;BME280;63139;52.018;8.552;2024-01-16T07:18:55;99661.53;;;2.46;100.00
74633;BME280;63139;52.018;8.552;2024-01-16T07:21:23;99674.34;;;2.49;100.00
74633;BME280;63139;52.018;8.552;2024-01-16T07:23:51;99670.88;;;2.48;100.00
74633;BME280;63139;52.018;8.552;2024-01-16T07:26:19;99658.78;;;2.47;100.00
74633;BME280;63139;52.018;8.552;2024-01-16T07:28:48;99669.81;;;2.51;100.00
74633;BME280;63139;52.018;8.552;2024-01-16T07:31:16;99673.50;;;2.48;100.00
74633;BME280;63139;52.018;8.552;2024-01-16T07:33:45;99669.94;;;2.49;100.00
74633;BME280;63139;52.018;8.552;2024-01-16T07:36:13;99668.69;;;2.44;100.00
74633;BME280;63139;52.018;8.552;2024-01-16T07:38:41;99670.31;;;2.45;100.00
74633;BME280;63139;52.018;8.552;2024-01-16T07:41:09;99676.53;;;2.44;100.00
74633;BME280;63139;52.018;8.552;2024-01-16T07:43:38;99683.00;;;2.49;100.00
74633;BME280;63139;52.018;8.552;2024-01-16T07:46:06;99676.25;;;2.47;100.00
74633;BME280;63139;52.018;8.552;2024-01-16T07:48:34;99683.38;;;2.45;100.00
74633;BME280;63139;52.018;8.552;2024-01-16T07:51:04;99680.38;;;2.49;100.00
74633;BME280;63139;52.018;8.552;2024-01-16T07:53:32;99683.97;;;2.58;100.00
74633;BME280;63139;52.018;8.552;2024-01-16T07:56:00;99683.53;;;2.62;100.00
74633;BME280;63139;52.018;8.552;2024-01-16T07:58:28;99690.16;;;2.66;100.00
74633;BME280;63139;52.018;8.552;2024-01-16T08:00:56;99681.06;;;2.70;100.00
74633;BME280;63139;52.018;8.552;2024-01-16T08:03:23;99678.31;;;2.72;100.00
74633;BME280;63139;52.018;8.552;2024-01-16T08:05:52;99682.72;;;2.71;100.00
74633;BME280;63139;52.018;8.552;2024-01-16T08:08:22;99675.03;;;2.70;100.00
74633;BME280;63139;52.018;8.552;2024-01-16T08:10:50;99680.25;;;2.70;100.00
74633;BME280;63139;52.018;8.552;2024-01-16T08:13:18;99684.50;;;2.71;100.00
74633;BME280;63139;52.018;8.552;2024-01-16T08:15:46;99687.69;;;2.65;100.00
74633;BME280;63139;52.018;8.552;2024-01-16T08:18:14;99692.47;;;2.69;100.00
74633;BME280;63139;52.018;8.552;2024-01-16T08:20:45;99687.81;;;2.73;100.00
74633;BME280;63139;52.018;8.552;2024-01-16T08:23:13;99694.13;;;2.70;100.00
74633;BME280;63139;52.018;8.552;2024-01-16T08:25:42;99703.75;;;2.70;100.00
74633;BME280;63139;52.018;8.552;2024-01-16T08:28:10;99691.25;;;2.73;100.00
74633;BME280;63139;52.018;8.552;2024-01-16T08:30:38;99700.06;;;2.72;100.00
74633;BME280;63139;52.018;8.552;2024-01-16T08:33:07;99703.63;;;2.71;100.00
74633;BME280;63139;52.018;8.552;2024-01-16T08:35:35;99704.31;;;2.73;100.00
74633;BME280;63139;52.018;8.552;2024-01-16T08:38:04;99700.34;;;2.79;100.00
74633;BME280;63139;52.018;8.552;2024-01-16T08:40:32;99704.03;;;2.77;100.00
74633;BME280;63139;52.018;8.552;2024-01-16T08:43:02;99700.34;;;2.79;100.00
74633;BME280;63139;52.018;8.552;2024-01-16T08:45:30;99700.88;;;2.83;100.00
74633;BME280;63139;52.018;8.552;2024-01-16T08:47:58;99702.66;;;2.82;100.00
74633;BME280;63139;52.018;8.552;2024-01-16T08:50:28;99706.91;;;2.83;100.00
74633;BME280;63139;52.018;8.552;2024-01-16T08:52:56;99696.59;;;2.91;100.00
74633;BME280;63139;52.018;8.552;2024-01-16T08:55:24;99696.88;;;2.98;100.00
74633;BME280;63139;52.018;8.552;2024-01-16T08:57:52;99706.75;;;3.04;100.00
74633;BME280;63139;52.018;8.552;2024-01-16T09:00:22;99704.44;;;3.10;100.00
74633;BME280;63139;52.018;8.552;2024-01-16T09:02:49;99697.69;;;3.18;100.00
74633;BME280;63139;52.018;8.552;2024-01-16T09:05:18;99698.34;;;3.29;100.00
74633;BME280;63139;52.018;8.552;2024-01-16T09:07:49;99709.50;;;3.31;100.00
74633;BME280;63139;52.018;8.552;2024-01-16T09:10:17;99704.97;;;3.33;100.00
74633;BME280;63139;52.018;8.552;2024-01-16T09:12:44;99704.41;;;3.20;100.00
74633;BME280;63139;52.018;8.552;2024-01-16T09:15:13;99715.41;;;3.33;100.00
74633;BME280;63139;52.018;8.552;2024-01-16T09:17:43;99700.63;;;3.51;100.00
74633;BME280;63139;52.018;8.552;2024-01-16T09:20:11;99699.09;;;3.59;100.00
74633;BME280;63139;52.018;8.552;2024-01-16T09:22:39;99701.44;;;3.62;100.00
74633;BME280;63139;52.018;8.552;2024-01-16T09:25:08;99709.84;;;3.56;100.00
74633;BME280;63139;52.018;8.552;2024-01-16T09:27:36;99706.09;;;3.58;100.00
74633;BME280;63139;52.018;8.552;2024-01-16T09:30:05;99713.84;;;3.50;100.00
74633;BME280;63139;52.018;8.552;2024-01-16T09:32:34;99712.19;;;3.49;100.00
74633;BME280;63139;52.018;8.552;2024-01-16T09:35:04;99710.50;;;3.58;100.00
74633;BME280;63139;52.018;8.552;2024-01-16T09:37:34;99721.41;;;3.63;100.00
74633;BME280;63139;52.018;8.552;2024-01-16T09:40:02;99719.44;;;3.65;100.00
74633;BME280;63139;52.018;8.552;2024-01-16T09:42:32;99717.50;;;3.67;100.00
74633;BME280;63139;52.018;8.552;2024-01-16T09:45:00;99706.50;;;3.63;100.00
74633;BME280;63139;52.018;8.552;2024-01-16T09:47:30;99702.38;;;3.61;100.00
74633;BME280;63139;52.018;8.552;2024-01-16T09:49:59;99705.16;;;3.49;100.00
74633;BME280;63139;52.018;8.552;2024-01-16T09:52:29;99691.94;;;3.61;100.00
74633;BME280;63139;52.018;8.552;2024-01-16T09:54:57;99695.63;;;3.68;100.00
74633;BME280;63139;52.018;8.552;2024-01-16T09:57:26;99692.69;;;3.71;100.00
74633;BME280;63139;52.018;8.552;2024-01-16T09:59:56;99685.66;;;3.71;100.00
74633;BME280;63139;52.018;8.552;2024-01-16T10:02:25;99688.97;;;3.73;99.17
74633;BME280;63139;52.018;8.552;2024-01-16T10:04:53;99685.50;;;3.82;99.28
74633;BME280;63139;52.018;8.552;2024-01-16T10:07:22;99694.69;;;3.86;98.73
74633;BME280;63139;52.018;8.552;2024-01-16T10:09:57;99684.94;;;3.79;98.18
74633;BME280;63139;52.018;8.552;2024-01-16T10:12:26;99699.41;;;3.83;100.00
74633;BME280;63139;52.018;8.552;2024-01-16T10:14:55;99695.00;;;3.83;99.92
74633;BME280;63139;52.018;8.552;2024-01-16T10:17:35;99702.75;;;3.75;98.54
74633;BME280;63139;52.018;8.552;2024-01-16T10:20:04;99690.38;;;3.68;98.69
74633;BME280;63139;52.018;8.552;2024-01-16T10:22:33;99690.75;;;3.73;100.00
74633;BME280;63139;52.018;8.552;2024-01-16T10:25:07;99693.25;;;3.74;100.00
74633;BME280;63139;52.018;8.552;2024-01-16T10:27:37;99694.50;;;3.70;100.00
74633;BME280;63139;52.018;8.552;2024-01-16T10:30:06;99684.94;;;3.51;99.87
74633;BME280;63139;52.018;8.552;2024-01-16T10:32:36;99690.50;;;3.66;100.00
74633;BME280;63139;52.018;8.552;2024-01-16T10:35:06;99690.13;;;3.61;99.76
74633;BME280;63139;52.018;8.552;2024-01-16T10:37:41;99702.78;;;3.66;99.98
74633;BME280;63139;52.018;8.552;2024-01-16T10:40:14;99694.94;;;3.66;100.00
74633;BME280;63139;52.018;8.552;2024-01-16T10:42:43;99688.88;;;3.65;100.00
74633;BME280;63139;52.018;8.552;2024-01-16T10:45:16;99686.66;;;3.70;99.70
74633;BME280;63139;52.018;8.552;2024-01-16T10:47:46;99682.31;;;3.79;98.66
74633;BME280;63139;52.018;8.552;2024-01-16T10:50:15;99691.69;;;3.81;99.26
74633;BME280;63139;52.018;8.552;2024-01-16T10:52:46;99690.75;;;3.73;99.46
74633;BME280;63139;52.018;8.552;2024-01-16T10:55:21;99684.03;;;3.70;98.08
74633;BME280;63139;52.018;8.552;2024-01-16T10:57:51;99679.19;;;3.75;99.00
74633;BME280;63139;52.018;8.552;2024-01-16T11:00:20;99683.22;;;3.70;98.31
74633;BME280;63139;52.018;8.552;2024-01-16T11:02:50;99681.69;;;3.67;98.18
74633;BME280;63139;52.018;8.552;2024-01-16T11:05:20;99686.81;;;3.69;98.49
74633;BME280;63139;52.018;8.552;2024-01-16T11:07:54;99678.81;;;3.70;97.62
74633;BME280;63139;52.018;8.552;2024-01-16T11:10:25;99678.53;;;3.64;96.75
74633;BME280;63139;52.018;8.552;2024-01-16T11:12:55;99682.41;;;3.69;97.42
74633;BME280;63139;52.018;8.552;2024-01-16T11:15:27;99682.81;;;3.65;95.69
74633;BME280;63139;52.018;8.552;2024-01-16T11:17:55;99680.97;;;3.75;97.87
74633;BME280;63139;52.018;8.552;2024-01-16T11:20:24;99683.41;;;3.86;95.48
74633;BME280;63139;52.018;8.552;2024-01-16T11:23:13;99683.66;;;3.93;94.11
74633;BME280;63139;52.018;8.552;2024-01-16T11:25:43;99682.03;;;3.92;92.14
74633;BME280;63139;52.018;8.552;2024-01-16T11:28:12;99685.97;;;3.96;92.36
74633;BME280;63139;52.018;8.552;2024-01-16T11:30:42;99689.97;;;4.00;92.25
74633;BME280;63139;52.018;8.552;2024-01-16T11:33:43;99679.16;;;4.12;91.97
74633;BME280;63139;52.018;8.552;2024-01-16T11:39:26;99667.34;;;4.26;90.87
74633;BME280;63139;52.018;8.552;2024-01-16T11:41:57;99673.63;;;4.33;88.80
74633;BME280;63139;52.018;8.552;2024-01-16T11:44:42;99675.56;;;4.31;87.66
74633;BME280;63139;52.018;8.552;2024-01-16T11:47:17;99670.72;;;4.36;89.52
74633;BME280;63139;52.018;8.552;2024-01-16T11:49:46;99668.94;;;4.37;88.33
74633;BME280;63139;52.018;8.552;2024-01-16T11:52:14;99670.88;;;4.35;88.14
74633;BME280;63139;52.018;8.552;2024-01-16T11:54:42;99674.00;;;4.38;88.50
74633;BME280;63139;52.018;8.552;2024-01-16T11:57:26;99677.22;;;4.32;86.14
74633;BME280;63139;52.018;8.552;2024-01-16T12:00:01;99681.84;;;4.38;87.00
74633;BME280;63139;52.018;8.552;2024-01-16T12:02:52;99688.53;;;4.33;87.19
74633;BME280;63139;52.018;8.552;2024-01-16T12:05:21;99684.16;;;4.23;86.90
74633;BME280;63139;52.018;8.552;2024-01-16T12:07:50;99680.47;;;4.16;87.29
74633;BME280;63139;52.018;8.552;2024-01-16T12:10:21;99675.16;;;4.08;87.51
74633;BME280;63139;52.018;8.552;2024-01-16T12:12:56;99677.84;;;3.99;87.95
74633;BME280;63139;52.018;8.552;2024-01-16T12:15:30;99672.28;;;4.02;89.65
74633;BME280;63139;52.018;8.552;2024-01-16T12:18:00;99674.00;;;3.93;88.89
74633;BME280;63139;52.018;8.552;2024-01-16T12:20:30;99673.75;;;3.86;90.17
74633;BME280;63139;52.018;8.552;2024-01-16T12:23:00;99671.81;;;3.88;90.18
74633;BME280;63139;52.018;8.552;2024-01-16T12:25:30;99674.44;;;3.88;91.21
74633;BME280;63139;52.018;8.552;2024-01-16T12:28:20;99666.31;;;3.92;90.78
74633;BME280;63139;52.018;8.552;2024-01-16T12:30:59;99660.44;;;3.80;91.01
74633;BME280;63139;52.018;8.552;2024-01-16T12:33:28;99661.56;;;3.77;91.56
74633;BME280;63139;52.018;8.552;2024-01-16T12:36:03;99657.81;;;3.80;91.06
74633;BME280;63139;52.018;8.552;2024-01-16T12:38:33;99656.00;;;3.80;90.87
74633;BME280;63139;52.018;8.552;2024-01-16T12:41:05;99649.91;;;3.89;90.22
74633;BME280;63139;52.018;8.552;2024-01-16T12:43:37;99649.22;;;3.87;90.77
74633;BME280;63139;52.018;8.552;2024-01-16T12:46:05;99640.25;;;3.90;90.47
74633;BME280;63139;52.018;8.552;2024-01-16T12:48:34;99639.44;;;3.89;90.41
74633;BME280;63139;52.018;8.552;2024-01-16T12:51:02;99643.31;;;3.85;89.35
74633;BME280;63139;52.018;8.552;2024-01-16T12:53:32;99644.44;;;3.83;89.60
74633;BME280;63139;52.018;8.552;2024-01-16T12:56:04;99634.31;;;3.70;88.58
74633;BME280;63139;52.018;8.552;2024-01-16T12:58:36;99628.66;;;3.65;87.87
74633;BME280;63139;52.018;8.552;2024-01-16T13:01:24;99627.44;;;3.69;88.31
74633;BME280;63139;52.018;8.552;2024-01-16T13:03:55;99621.31;;;3.78;89.67
74633;BME280;63139;52.018;8.552;2024-01-16T13:06:23;99615.41;;;3.76;87.22
74633;BME280;63139;52.018;8.552;2024-01-16T13:09:04;99611.88;;;3.85;88.01
74633;BME280;63139;52.018;8.552;2024-01-16T13:11:46;99621.31;;;3.78;87.40
74633;BME280;63139;52.018;8.552;2024-01-16T13:14:16;99625.91;;;3.67;87.62
74633;BME280;63139;52.018;8.552;2024-01-16T13:16:44;99620.13;;;3.63;87.84
74633;BME280;63139;52.018;8.552;2024-01-16T13:19:12;99620.41;;;3.70;88.88